Terminal Aerodrome Forecast
Issued by NWS

Home | Current Version | Previous Version | Text Only | Print | Product List | Glossary On
Versions: 1 2 3 4 5 6 7 8 9 10 11 12 13 14 15 16 17 18 19 20 21 22 23 24
094
FTUS43 KEAX 240930 AAB
TAFSTJ
TAF AMD
KSTJ 240930Z 2410/2506 18011KT 6SM -RA BR BKN035 OVC060
      TEMPO 2410/2411 2SM TSRA BKN040CB
     FM241100 19010KT P6SM BKN150
     FM242100 24010KT P6SM VCTS SCT040CB BKN120
     FM250100 32010KT 4SM -TSRA BKN035CB=

USA.gov is the U.S. government's official web portal to all federal, state and local government web resources and services.